TPJ weather

Taplejung Airport
Taplejung, Mechi, Nepal

Public forecast

Using degrees Celsius for public forecast. Weather courtesy of forecast.io.

METAR (pilot weather report)

Closest report is Bagdogra Airport, 52.6 nm (97.4 km) SE. Retrieved 2019/09/19 01:30 UTC (0 seconds ago):

VEBD 190130Z VRB02KT 6000 SCT100 SCT250 27/23 Q1013 NOSIG

TAF (pilot weather forecast)

Forecast is more than 12 hours old.

Closest forecast is Bagdogra Airport, 52.6 nm (97.4 km) SE. Retrieved 2019/09/18 12:30 UTC (13 hours ago):

TAF VEBD 180930Z 1812/1824 VRB02KT 6000 FEW3000 SCT100 TEMPO 1812/1816 FEW030CB